createdAt,value
2022-08-19T06:00:16.435Z,23.15
2022-08-19T06:02:57.851Z,23.24
2022-08-19T06:05:42.187Z,23.33
2022-08-19T06:08:34.329Z,23.43
2022-08-19T06:11:25.423Z,23.57
2022-08-19T06:14:05.014Z,23.63
2022-08-19T06:16:46.283Z,23.71
2022-08-19T06:19:27.544Z,23.80
2022-08-19T06:22:07.603Z,23.87
2022-08-19T06:24:44.824Z,23.95
2022-08-19T06:27:21.704Z,24.02
2022-08-19T06:29:58.898Z,24.11
2022-08-19T06:32:42.693Z,24.17
2022-08-19T06:35:20.059Z,24.22
2022-08-19T06:37:57.018Z,24.27
2022-08-19T06:40:34.364Z,24.32
2022-08-19T06:43:11.135Z,24.37
2022-08-19T06:45:49.129Z,24.43
2022-08-19T06:48:28.822Z,24.52
2022-08-19T06:51:08.656Z,24.59
2022-08-19T06:56:32.334Z,24.76
2022-08-19T06:59:11.813Z,24.86
2022-08-19T07:01:51.801Z,24.96
2022-08-19T07:04:35.417Z,25.03
2022-08-19T07:07:21.192Z,25.09
2022-08-19T07:10:01.046Z,25.17
2022-08-19T07:12:41.255Z,25.24
2022-08-19T07:15:18.835Z,25.32
2022-08-19T07:17:56.087Z,25.39
2022-08-19T07:20:36.145Z,25.49
2022-08-19T07:23:16.185Z,25.55
2022-08-19T07:25:54.128Z,25.61
2022-08-19T07:28:31.908Z,25.67
2022-08-19T07:31:10.318Z,25.77
2022-08-19T07:33:50.527Z,25.86
2022-08-19T07:36:35.490Z,25.94
2022-08-19T07:39:17.257Z,26.02
2022-08-19T07:41:56.747Z,26.10
2022-08-19T07:47:50.318Z,26.24
2022-08-19T07:50:18.066Z,26.38
2022-08-19T07:52:59.157Z,26.46
2022-08-19T07:55:43.545Z,26.61
2022-08-19T07:58:28.648Z,26.68
2022-08-19T08:01:13.133Z,26.83
2022-08-19T08:04:05.643Z,26.95
2022-08-19T08:06:58.959Z,27.02
2022-08-19T08:09:43.436Z,27.11
2022-08-19T08:12:35.183Z,27.24
2022-08-19T08:15:20.141Z,27.35
2022-08-19T08:18:03.137Z,27.43
2022-08-19T08:20:40.188Z,27.55
2022-08-19T08:23:30.605Z,27.66
2022-08-19T08:26:10.939Z,27.76
2022-08-19T08:28:50.778Z,27.86
2022-08-19T08:31:29.640Z,27.95
2022-08-19T08:34:07.008Z,28.04
2022-08-19T08:36:46.358Z,28.15
2022-08-19T08:39:27.691Z,28.23
2022-08-19T08:42:20.699Z,28.31
2022-08-19T08:45:06.874Z,28.41
2022-08-19T08:47:47.903Z,28.49
2022-08-19T08:50:37.328Z,28.57
2022-08-19T08:53:26.270Z,28.62
2022-08-19T08:56:17.006Z,28.84
2022-08-19T08:59:09.881Z,29.20
2022-08-19T09:01:50.285Z,29.52
2022-08-19T09:04:30.407Z,29.95
2022-08-19T09:07:39.934Z,30.56
2022-08-19T09:10:44.385Z,31.09
2022-08-19T09:13:37.607Z,31.65
2022-08-19T09:16:28.273Z,31.89
2022-08-19T09:19:10.108Z,31.90
2022-08-19T09:21:47.267Z,32.12
2022-08-19T09:24:24.496Z,32.09
2022-08-19T09:27:08.459Z,32.08
2022-08-19T09:29:56.177Z,31.96
2022-08-19T09:32:35.818Z,31.92
2022-08-19T09:35:14.190Z,31.94
2022-08-19T09:37:51.392Z,31.89
2022-08-19T09:40:38.259Z,31.81
2022-08-19T09:43:32.918Z,31.85
2022-08-19T09:46:16.825Z,31.72
2022-08-19T09:49:02.930Z,31.86
2022-08-19T09:51:46.838Z,31.88
2022-08-19T09:54:28.546Z,31.93
2022-08-19T09:57:07.700Z,31.86
2022-08-19T09:59:46.209Z,31.94
2022-08-19T10:02:23.454Z,32.01
2022-08-19T10:05:23.064Z,32.06
2022-08-19T10:08:04.471Z,32.12
2022-08-19T10:10:50.416Z,32.23
2022-08-19T10:13:31.316Z,32.29
2022-08-19T10:16:12.830Z,32.46
2022-08-19T10:18:50.449Z,32.63
2022-08-19T10:21:40.506Z,32.84
2022-08-19T10:24:17.883Z,32.98
2022-08-19T10:26:59.071Z,32.99
2022-08-19T10:29:38.577Z,32.98
2022-08-19T10:32:33.946Z,32.87
2022-08-19T10:35:12.944Z,33.02
2022-08-19T10:37:57.647Z,33.05
2022-08-19T10:40:40.029Z,33.16
2022-08-19T10:43:17.690Z,33.06
2022-08-19T10:46:00.588Z,33.07
2022-08-19T10:48:37.970Z,33.07
2022-08-19T10:51:28.980Z,33.26
2022-08-19T10:54:12.550Z,33.48
2022-08-19T10:56:53.602Z,33.45
2022-08-19T10:59:36.157Z,33.54
2022-08-19T11:02:15.897Z,33.63
2022-08-19T11:04:53.148Z,33.70
2022-08-19T11:07:31.632Z,33.86
2022-08-19T11:10:17.195Z,33.96
2022-08-19T11:12:58.158Z,34.02
2022-08-19T11:15:35.348Z,34.00
2022-08-19T11:18:13.535Z,34.19
2022-08-19T11:20:50.988Z,34.07
2022-08-19T11:23:28.177Z,34.21
2022-08-19T11:26:08.219Z,34.36
2022-08-19T11:28:45.990Z,34.52
2022-08-19T11:31:29.006Z,34.69
2022-08-19T11:34:19.481Z,34.88
2022-08-19T11:36:59.497Z,35.17
2022-08-19T11:39:38.341Z,35.41
2022-08-19T11:42:30.328Z,35.60
2022-08-19T11:45:07.412Z,35.63
2022-08-19T11:47:45.098Z,35.84
2022-08-19T11:50:22.518Z,36.13
2022-08-19T11:53:01.499Z,36.47
2022-08-19T11:55:44.353Z,36.62
2022-08-19T11:58:23.869Z,36.69
2022-08-19T12:01:01.498Z,36.78
2022-08-19T12:03:38.496Z,36.88
2022-08-19T12:06:20.369Z,37.14
2022-08-19T12:08:57.219Z,36.97
2022-08-19T12:11:34.900Z,37.45
2022-08-19T12:14:17.799Z,37.37
2022-08-19T12:16:56.047Z,36.63
2022-08-19T12:19:35.729Z,37.09
2022-08-19T12:22:13.788Z,37.32
2022-08-19T12:24:52.119Z,36.87
2022-08-19T12:27:40.223Z,36.94
2022-08-19T12:30:21.187Z,36.99
2022-08-19T12:32:58.612Z,37.02
2022-08-19T12:35:35.779Z,37.25
2022-08-19T12:38:13.338Z,37.38
2022-08-19T12:40:56.011Z,37.55
2022-08-19T12:43:36.060Z,37.44
2022-08-19T12:46:16.976Z,37.30
2022-08-19T12:48:56.231Z,37.44
2022-08-19T12:51:33.250Z,37.51
2022-08-19T12:54:10.671Z,37.50
2022-08-19T12:56:47.573Z,37.63
2022-08-19T12:59:24.959Z,37.68
2022-08-19T13:02:06.726Z,37.53
2022-08-19T13:04:44.741Z,37.30
2022-08-19T13:07:21.822Z,36.99
2022-08-19T13:09:59.091Z,36.60
2022-08-19T13:12:36.074Z,36.41
2022-08-19T13:15:17.621Z,36.43
2022-08-19T13:17:59.722Z,36.35
2022-08-19T13:20:37.241Z,36.38
2022-08-19T13:23:14.751Z,36.34
2022-08-19T13:26:05.100Z,36.29
2022-08-19T13:28:55.124Z,36.34
2022-08-19T13:31:47.534Z,36.20
2022-08-19T13:34:36.475Z,36.18
2022-08-19T13:37:14.079Z,36.14
2022-08-19T13:39:51.575Z,36.06
2022-08-19T13:42:29.075Z,36.17
2022-08-19T13:45:06.309Z,35.96
2022-08-19T13:47:45.751Z,35.91
2022-08-19T13:50:29.011Z,35.99
2022-08-19T13:53:07.191Z,35.93
2022-08-19T13:55:46.004Z,35.70
2022-08-19T13:58:23.581Z,35.64
2022-08-19T14:01:00.596Z,35.68
2022-08-19T14:03:39.659Z,35.59
2022-08-19T14:06:19.769Z,35.66
2022-08-19T14:08:57.091Z,35.71
2022-08-19T14:11:34.031Z,35.74
2022-08-19T14:14:14.535Z,35.84
2022-08-19T14:16:53.552Z,35.90
2022-08-19T14:19:30.695Z,36.01
2022-08-19T14:22:10.743Z,36.12
2022-08-19T14:24:53.761Z,36.19
2022-08-19T14:27:30.910Z,36.23
2022-08-19T14:30:09.817Z,36.35
2022-08-19T14:32:47.558Z,36.24
2022-08-19T14:35:25.415Z,36.31
2022-08-19T14:38:06.210Z,36.29
2022-08-19T14:40:44.035Z,36.23
2022-08-19T14:43:21.097Z,36.04
2022-08-19T14:45:58.356Z,35.96
2022-08-19T14:48:37.696Z,35.92
2022-08-19T14:51:19.641Z,35.80
2022-08-19T14:53:59.758Z,35.61
2022-08-19T14:56:37.127Z,35.48
2022-08-19T14:59:14.198Z,35.43
2022-08-19T15:01:51.490Z,35.34
2022-08-19T15:04:33.287Z,35.27
2022-08-19T15:07:11.587Z,35.14
2022-08-19T15:09:54.827Z,35.04
2022-08-19T15:12:52.084Z,35.09
2022-08-19T15:15:29.497Z,35.11
2022-08-19T15:18:06.687Z,35.03
2022-08-19T15:20:46.593Z,34.99
2022-08-19T15:23:25.087Z,34.86
2022-08-19T15:26:08.349Z,34.71
2022-08-19T15:28:47.378Z,34.61
2022-08-19T15:31:28.865Z,34.55
2022-08-19T15:34:07.161Z,34.44
2022-08-19T15:36:43.989Z,34.33
2022-08-19T15:39:21.729Z,34.23
2022-08-19T15:42:01.751Z,34.16
2022-08-19T15:44:38.957Z,34.09
2022-08-19T15:47:15.987Z,33.93
2022-08-19T15:50:15.102Z,33.87
2022-08-19T15:52:54.526Z,33.75
2022-08-19T15:55:37.710Z,33.71
2022-08-19T15:58:31.228Z,33.65
2022-08-19T16:01:23.533Z,33.61
2022-08-19T16:04:16.205Z,33.58
2022-08-19T16:06:56.460Z,33.46
2022-08-19T16:09:36.790Z,33.42
2022-08-19T16:12:13.964Z,33.42
2022-08-19T16:14:53.873Z,33.39
2022-08-19T16:17:31.396Z,33.37
2022-08-19T16:20:11.388Z,33.34
2022-08-19T16:22:49.513Z,33.29
2022-08-19T16:25:27.997Z,33.25
2022-08-19T16:28:08.252Z,33.17
2022-08-19T16:30:51.025Z,33.11
2022-08-19T16:33:28.567Z,32.95
2022-08-19T16:36:07.201Z,32.92
2022-08-19T16:38:46.767Z,32.83
2022-08-19T16:41:24.548Z,32.76
2022-08-19T16:44:01.667Z,32.62
2022-08-19T16:46:42.638Z,32.50
2022-08-19T16:49:22.640Z,32.37
2022-08-19T16:52:17.795Z,32.29
2022-08-19T16:54:55.370Z,32.19
2022-08-19T16:57:32.566Z,32.14
2022-08-19T17:00:13.348Z,32.09
2022-08-19T17:02:53.546Z,32.03
2022-08-19T17:05:31.617Z,31.95
2022-08-19T17:08:08.880Z,31.90
2022-08-19T17:11:02.122Z,31.87
2022-08-19T17:13:45.113Z,31.78
2022-08-19T17:16:29.812Z,31.73
2022-08-19T17:19:12.167Z,31.69
2022-08-19T17:21:53.708Z,31.65
2022-08-19T17:24:32.653Z,31.60
2022-08-19T17:27:10.828Z,31.55
2022-08-19T17:29:49.287Z,31.50
2022-08-19T17:32:27.528Z,31.43
2022-08-19T17:35:08.129Z,31.37
2022-08-19T17:37:45.318Z,31.33
2022-08-19T17:40:24.086Z,31.28
2022-08-19T17:43:01.652Z,31.18
2022-08-19T17:45:39.020Z,31.10
2022-08-19T17:48:18.372Z,31.06
2022-08-19T17:51:00.274Z,31.04
2022-08-19T17:53:37.513Z,30.98
2022-08-19T17:56:14.820Z,30.92
2022-08-19T17:58:59.925Z,30.86
2022-08-19T18:01:53.156Z,30.81
2022-08-19T18:04:32.721Z,30.76
2022-08-19T18:07:13.589Z,30.72
2022-08-19T18:09:52.971Z,30.67
2022-08-19T18:12:30.141Z,30.65
2022-08-19T18:15:10.303Z,30.60
2022-08-19T18:17:47.642Z,30.56
2022-08-19T18:20:25.102Z,30.51
2022-08-19T18:23:44.355Z,30.47
2022-08-19T18:26:01.727Z,30.41
2022-08-19T18:28:49.569Z,30.37
2022-08-19T18:31:27.438Z,30.31
2022-08-19T18:34:04.721Z,30.33
2022-08-19T18:36:53.584Z,30.26
2022-08-19T18:39:46.077Z,30.22
2022-08-19T18:42:35.887Z,30.16
2022-08-19T18:45:26.315Z,30.15
2022-08-19T18:48:27.547Z,30.10
2022-08-19T18:51:05.423Z,30.06
2022-08-19T18:53:45.680Z,30.05
2022-08-19T18:56:28.637Z,30.03
